sensor_id;sensor_type;location;lat;lon;timestamp;temperature;humidity
1958;DHT22;979;51.076;13.748;2023-02-11T00:00:52;4.70;82.50
1958;DHT22;979;51.076;13.748;2023-02-11T00:03:25;4.70;82.40
1958;DHT22;979;51.076;13.748;2023-02-11T00:06:00;4.80;82.30
1958;DHT22;979;51.076;13.748;2023-02-11T00:08:38;4.80;82.40
1958;DHT22;979;51.076;13.748;2023-02-11T00:11:12;4.90;82.70
1958;DHT22;979;51.076;13.748;2023-02-11T00:13:43;4.80;82.60
1958;DHT22;979;51.076;13.748;2023-02-11T00:16:15;4.80;82.60
1958;DHT22;979;51.076;13.748;2023-02-11T00:18:47;4.90;82.90
1958;DHT22;979;51.076;13.748;2023-02-11T00:21:20;4.80;82.80
1958;DHT22;979;51.076;13.748;2023-02-11T00:23:50;4.90;82.80
1958;DHT22;979;51.076;13.748;2023-02-11T00:26:25;4.90;82.80
1958;DHT22;979;51.076;13.748;2023-02-11T00:28:59;5.10;83.10
1958;DHT22;979;51.076;13.748;2023-02-11T00:31:34;4.90;83.00
1958;DHT22;979;51.076;13.748;2023-02-11T00:34:09;4.90;83.20
1958;DHT22;979;51.076;13.748;2023-02-11T00:36:39;4.90;83.40
1958;DHT22;979;51.076;13.748;2023-02-11T00:39:09;4.90;83.10
1958;DHT22;979;51.076;13.748;2023-02-11T00:41:45;4.90;83.20
1958;DHT22;979;51.076;13.748;2023-02-11T00:44:18;4.90;83.00
1958;DHT22;979;51.076;13.748;2023-02-11T00:46:50;4.90;83.60
1958;DHT22;979;51.076;13.748;2023-02-11T00:49:23;5.00;83.60
1958;DHT22;979;51.076;13.748;2023-02-11T00:51:55;4.90;83.60
1958;DHT22;979;51.076;13.748;2023-02-11T00:54:27;5.20;83.60
1958;DHT22;979;51.076;13.748;2023-02-11T00:57:01;5.00;83.40
1958;DHT22;979;51.076;13.748;2023-02-11T00:59:30;5.00;83.60
1958;DHT22;979;51.076;13.748;2023-02-11T01:02:04;5.00;83.40
1958;DHT22;979;51.076;13.748;2023-02-11T01:04:34;5.10;83.50
1958;DHT22;979;51.076;13.748;2023-02-11T01:07:03;5.10;83.80
1958;DHT22;979;51.076;13.748;2023-02-11T01:09:31;5.20;83.70
1958;DHT22;979;51.076;13.748;2023-02-11T01:12:04;5.20;83.70
1958;DHT22;979;51.076;13.748;2023-02-11T01:14:32;5.30;83.90
1958;DHT22;979;51.076;13.748;2023-02-11T01:17:03;5.30;84.00
1958;DHT22;979;51.076;13.748;2023-02-11T01:19:33;5.30;83.80
1958;DHT22;979;51.076;13.748;2023-02-11T01:22:03;5.60;83.90
1958;DHT22;979;51.076;13.748;2023-02-11T01:24:33;5.60;83.80
1958;DHT22;979;51.076;13.748;2023-02-11T01:27:02;5.40;83.80
1958;DHT22;979;51.076;13.748;2023-02-11T01:29:33;5.30;83.60
1958;DHT22;979;51.076;13.748;2023-02-11T01:32:02;5.70;84.00
1958;DHT22;979;51.076;13.748;2023-02-11T01:34:30;5.50;83.80
1958;DHT22;979;51.076;13.748;2023-02-11T01:37:00;5.60;84.20
1958;DHT22;979;51.076;13.748;2023-02-11T01:39:32;5.70;84.30
1958;DHT22;979;51.076;13.748;2023-02-11T01:42:01;5.90;84.50
1958;DHT22;979;51.076;13.748;2023-02-11T01:44:32;5.70;84.30
1958;DHT22;979;51.076;13.748;2023-02-11T01:47:01;5.80;84.20
1958;DHT22;979;51.076;13.748;2023-02-11T01:49:34;5.90;84.40
1958;DHT22;979;51.076;13.748;2023-02-11T01:52:09;5.90;84.00
1958;DHT22;979;51.076;13.748;2023-02-11T01:54:42;5.90;83.90
1958;DHT22;979;51.076;13.748;2023-02-11T01:57:31;5.90;84.00
1958;DHT22;979;51.076;13.748;2023-02-11T02:00:09;6.00;84.20
1958;DHT22;979;51.076;13.748;2023-02-11T02:02:48;6.00;84.00
1958;DHT22;979;51.076;13.748;2023-02-11T02:05:23;6.00;84.60
1958;DHT22;979;51.076;13.748;2023-02-11T02:08:02;6.00;83.80
1958;DHT22;979;51.076;13.748;2023-02-11T02:10:33;6.30;84.00
1958;DHT22;979;51.076;13.748;2023-02-11T02:13:02;6.20;84.00
1958;DHT22;979;51.076;13.748;2023-02-11T02:15:33;6.20;84.30
1958;DHT22;979;51.076;13.748;2023-02-11T02:18:17;6.20;84.20
1958;DHT22;979;51.076;13.748;2023-02-11T02:27:23;6.40;83.70
1958;DHT22;979;51.076;13.748;2023-02-11T02:33:05;6.50;83.90
1958;DHT22;979;51.076;13.748;2023-02-11T02:35:54;6.50;83.90
1958;DHT22;979;51.076;13.748;2023-02-11T02:38:29;6.50;83.90
1958;DHT22;979;51.076;13.748;2023-02-11T02:41:02;6.60;83.80
1958;DHT22;979;51.076;13.748;2023-02-11T02:43:35;6.70;84.30
1958;DHT22;979;51.076;13.748;2023-02-11T02:46:13;6.70;84.40
1958;DHT22;979;51.076;13.748;2023-02-11T02:48:47;6.70;84.50
1958;DHT22;979;51.076;13.748;2023-02-11T02:51:41;6.80;84.70
1958;DHT22;979;51.076;13.748;2023-02-11T02:54:34;6.80;84.40
1958;DHT22;979;51.076;13.748;2023-02-11T02:57:18;6.90;84.80
1958;DHT22;979;51.076;13.748;2023-02-11T03:00:02;7.00;84.80
1958;DHT22;979;51.076;13.748;2023-02-11T03:02:35;7.00;84.30
1958;DHT22;979;51.076;13.748;2023-02-11T03:05:14;7.10;84.80
1958;DHT22;979;51.076;13.748;2023-02-11T03:07:50;7.00;84.30
1958;DHT22;979;51.076;13.748;2023-02-11T03:10:27;7.10;84.20
1958;DHT22;979;51.076;13.748;2023-02-11T03:12:57;7.10;84.90
1958;DHT22;979;51.076;13.748;2023-02-11T03:15:27;6.90;83.80
1958;DHT22;979;51.076;13.748;2023-02-11T03:17:59;7.00;84.00
1958;DHT22;979;51.076;13.748;2023-02-11T03:20:32;7.00;83.90
1958;DHT22;979;51.076;13.748;2023-02-11T03:23:06;7.10;84.40
1958;DHT22;979;51.076;13.748;2023-02-11T03:25:39;7.10;84.10
1958;DHT22;979;51.076;13.748;2023-02-11T03:28:15;7.10;83.90
1958;DHT22;979;51.076;13.748;2023-02-11T03:30:50;7.10;83.70
1958;DHT22;979;51.076;13.748;2023-02-11T03:33:27;7.10;83.50
1958;DHT22;979;51.076;13.748;2023-02-11T03:36:03;7.30;83.70
1958;DHT22;979;51.076;13.748;2023-02-11T03:38:36;7.10;83.60
1958;DHT22;979;51.076;13.748;2023-02-11T03:41:07;7.10;83.30
1958;DHT22;979;51.076;13.748;2023-02-11T03:43:40;7.10;83.30
1958;DHT22;979;51.076;13.748;2023-02-11T03:46:11;7.30;83.50
1958;DHT22;979;51.076;13.748;2023-02-11T03:48:45;7.20;83.70
1958;DHT22;979;51.076;13.748;2023-02-11T03:51:16;7.20;84.00
1958;DHT22;979;51.076;13.748;2023-02-11T03:53:45;7.30;83.90
1958;DHT22;979;51.076;13.748;2023-02-11T03:56:17;7.20;83.20
1958;DHT22;979;51.076;13.748;2023-02-11T03:58:47;7.30;83.20
1958;DHT22;979;51.076;13.748;2023-02-11T04:01:15;7.20;82.90
1958;DHT22;979;51.076;13.748;2023-02-11T04:03:46;7.40;83.10
1958;DHT22;979;51.076;13.748;2023-02-11T04:06:16;7.10;82.20
1958;DHT22;979;51.076;13.748;2023-02-11T04:08:45;7.20;82.10
1958;DHT22;979;51.076;13.748;2023-02-11T04:11:13;7.10;82.30
1958;DHT22;979;51.076;13.748;2023-02-11T04:13:41;7.10;82.30
1958;DHT22;979;51.076;13.748;2023-02-11T04:16:10;7.20;82.40
1958;DHT22;979;51.076;13.748;2023-02-11T04:18:41;7.20;82.50
1958;DHT22;979;51.076;13.748;2023-02-11T04:21:09;7.20;82.40
1958;DHT22;979;51.076;13.748;2023-02-11T04:23:40;7.40;82.50
1958;DHT22;979;51.076;13.748;2023-02-11T04:26:12;7.20;82.50
1958;DHT22;979;51.076;13.748;2023-02-11T04:28:41;7.20;82.60
1958;DHT22;979;51.076;13.748;2023-02-11T04:31:10;7.20;82.80
1958;DHT22;979;51.076;13.748;2023-02-11T04:33:40;7.20;82.70
1958;DHT22;979;51.076;13.748;2023-02-11T04:36:10;7.20;82.50
1958;DHT22;979;51.076;13.748;2023-02-11T04:38:42;7.20;82.30
1958;DHT22;979;51.076;13.748;2023-02-11T04:41:11;7.20;82.40
1958;DHT22;979;51.076;13.748;2023-02-11T04:43:39;7.30;82.10
1958;DHT22;979;51.076;13.748;2023-02-11T04:46:08;7.20;82.20
1958;DHT22;979;51.076;13.748;2023-02-11T04:48:37;7.20;82.30
1958;DHT22;979;51.076;13.748;2023-02-11T04:51:06;7.10;82.10
1958;DHT22;979;51.076;13.748;2023-02-11T04:53:34;7.30;82.20
1958;DHT22;979;51.076;13.748;2023-02-11T04:56:11;7.30;82.10
1958;DHT22;979;51.076;13.748;2023-02-11T04:58:40;7.20;82.10
1958;DHT22;979;51.076;13.748;2023-02-11T05:01:11;7.30;82.30
1958;DHT22;979;51.076;13.748;2023-02-11T05:03:41;7.30;82.80
1958;DHT22;979;51.076;13.748;2023-02-11T05:06:10;7.30;82.20
1958;DHT22;979;51.076;13.748;2023-02-11T05:08:42;7.30;82.20
1958;DHT22;979;51.076;13.748;2023-02-11T05:11:17;7.30;82.40
1958;DHT22;979;51.076;13.748;2023-02-11T05:13:46;7.30;81.70
1958;DHT22;979;51.076;13.748;2023-02-11T05:16:15;7.20;81.50
1958;DHT22;979;51.076;13.748;2023-02-11T05:18:44;7.10;81.40
1958;DHT22;979;51.076;13.748;2023-02-11T05:21:15;7.10;81.50
1958;DHT22;979;51.076;13.748;2023-02-11T05:23:44;7.10;81.40
1958;DHT22;979;51.076;13.748;2023-02-11T05:26:14;7.10;81.60
1958;DHT22;979;51.076;13.748;2023-02-11T05:28:44;7.10;81.90
1958;DHT22;979;51.076;13.748;2023-02-11T05:31:13;7.00;81.90
1958;DHT22;979;51.076;13.748;2023-02-11T05:33:43;7.10;82.30
1958;DHT22;979;51.076;13.748;2023-02-11T05:36:12;7.10;82.40
1958;DHT22;979;51.076;13.748;2023-02-11T05:38:41;7.10;82.20
1958;DHT22;979;51.076;13.748;2023-02-11T05:41:10;7.10;82.30
1958;DHT22;979;51.076;13.748;2023-02-11T05:43:40;7.10;82.40
1958;DHT22;979;51.076;13.748;2023-02-11T05:46:09;7.10;82.60
1958;DHT22;979;51.076;13.748;2023-02-11T05:48:37;7.00;82.30
1958;DHT22;979;51.076;13.748;2023-02-11T05:51:06;7.00;82.40
1958;DHT22;979;51.076;13.748;2023-02-11T05:53:34;7.00;82.40
1958;DHT22;979;51.076;13.748;2023-02-11T05:56:03;7.00;82.70
1958;DHT22;979;51.076;13.748;2023-02-11T05:58:32;7.00;82.60
1958;DHT22;979;51.076;13.748;2023-02-11T06:01:06;7.00;82.90
1958;DHT22;979;51.076;13.748;2023-02-11T06:03:34;7.00;82.70
1958;DHT22;979;51.076;13.748;2023-02-11T06:06:04;6.90;82.50
1958;DHT22;979;51.076;13.748;2023-02-11T06:08:32;6.80;82.50
1958;DHT22;979;51.076;13.748;2023-02-11T06:11:04;6.90;82.70
1958;DHT22;979;51.076;13.748;2023-02-11T06:13:33;6.90;82.60
1958;DHT22;979;51.076;13.748;2023-02-11T06:16:05;6.90;82.90
1958;DHT22;979;51.076;13.748;2023-02-11T06:18:35;6.90;82.70
1958;DHT22;979;51.076;13.748;2023-02-11T06:21:06;6.90;82.80
1958;DHT22;979;51.076;13.748;2023-02-11T06:23:35;6.80;82.70
1958;DHT22;979;51.076;13.748;2023-02-11T06:26:07;6.70;82.70
1958;DHT22;979;51.076;13.748;2023-02-11T06:28:38;6.80;82.80
1958;DHT22;979;51.076;13.748;2023-02-11T06:31:09;6.80;83.20
1958;DHT22;979;51.076;13.748;2023-02-11T06:33:38;7.00;83.40
1958;DHT22;979;51.076;13.748;2023-02-11T06:36:13;6.80;83.20
1958;DHT22;979;51.076;13.748;2023-02-11T06:38:42;6.80;83.20
1958;DHT22;979;51.076;13.748;2023-02-11T06:41:10;6.80;83.20
1958;DHT22;979;51.076;13.748;2023-02-11T06:43:39;6.80;83.30
1958;DHT22;979;51.076;13.748;2023-02-11T06:46:24;6.80;83.40
1958;DHT22;979;51.076;13.748;2023-02-11T06:48:55;6.80;83.10
1958;DHT22;979;51.076;13.748;2023-02-11T06:51:24;6.90;83.60
1958;DHT22;979;51.076;13.748;2023-02-11T06:54:00;6.90;83.50
1958;DHT22;979;51.076;13.748;2023-02-11T06:56:44;7.10;83.80
1958;DHT22;979;51.076;13.748;2023-02-11T06:59:22;6.90;83.60
1958;DHT22;979;51.076;13.748;2023-02-11T07:02:02;7.00;83.30
1958;DHT22;979;51.076;13.748;2023-02-11T07:04:32;6.90;83.30
1958;DHT22;979;51.076;13.748;2023-02-11T07:07:08;6.90;83.30
1958;DHT22;979;51.076;13.748;2023-02-11T07:09:36;7.00;83.50
1958;DHT22;979;51.076;13.748;2023-02-11T07:12:07;7.00;83.50
1958;DHT22;979;51.076;13.748;2023-02-11T07:14:36;6.90;83.20
1958;DHT22;979;51.076;13.748;2023-02-11T07:17:10;7.00;83.50
1958;DHT22;979;51.076;13.748;2023-02-11T07:19:42;7.10;83.70
1958;DHT22;979;51.076;13.748;2023-02-11T07:22:10;7.10;83.70
1958;DHT22;979;51.076;13.748;2023-02-11T07:24:39;7.00;83.40
1958;DHT22;979;51.076;13.748;2023-02-11T07:27:09;7.10;83.40
1958;DHT22;979;51.076;13.748;2023-02-11T07:29:38;7.20;83.60
1958;DHT22;979;51.076;13.748;2023-02-11T07:32:08;7.20;83.70
1958;DHT22;979;51.076;13.748;2023-02-11T07:34:39;7.00;83.90
1958;DHT22;979;51.076;13.748;2023-02-11T07:37:08;7.00;83.80
1958;DHT22;979;51.076;13.748;2023-02-11T07:39:37;7.00;84.00
1958;DHT22;979;51.076;13.748;2023-02-11T07:42:06;7.00;84.00
1958;DHT22;979;51.076;13.748;2023-02-11T07:44:36;6.90;84.00
1958;DHT22;979;51.076;13.748;2023-02-11T07:47:05;7.10;84.00
1958;DHT22;979;51.076;13.748;2023-02-11T07:49:34;6.80;83.90
1958;DHT22;979;51.076;13.748;2023-02-11T07:52:03;6.80;84.10
1958;DHT22;979;51.076;13.748;2023-02-11T07:54:34;6.80;84.10
1958;DHT22;979;51.076;13.748;2023-02-11T07:57:28;6.80;84.20
1958;DHT22;979;51.076;13.748;2023-02-11T07:59:58;7.00;84.60
1958;DHT22;979;51.076;13.748;2023-02-11T08:02:26;7.00;84.80
1958;DHT22;979;51.076;13.748;2023-02-11T08:04:59;6.90;84.80
1958;DHT22;979;51.076;13.748;2023-02-11T08:07:28;7.10;85.30
1958;DHT22;979;51.076;13.748;2023-02-11T08:09:58;7.00;85.60
1958;DHT22;979;51.076;13.748;2023-02-11T08:12:27;7.00;85.40
1958;DHT22;979;51.076;13.748;2023-02-11T08:14:57;7.00;85.60
1958;DHT22;979;51.076;13.748;2023-02-11T08:17:26;6.90;85.60
1958;DHT22;979;51.076;13.748;2023-02-11T08:19:55;7.10;85.50
1958;DHT22;979;51.076;13.748;2023-02-11T08:22:24;7.10;85.60
1958;DHT22;979;51.076;13.748;2023-02-11T08:24:54;7.20;85.70
1958;DHT22;979;51.076;13.748;2023-02-11T08:27:27;7.30;85.70
1958;DHT22;979;51.076;13.748;2023-02-11T08:29:55;7.20;85.30
1958;DHT22;979;51.076;13.748;2023-02-11T08:32:25;7.20;85.70
1958;DHT22;979;51.076;13.748;2023-02-11T08:34:54;7.30;85.90
1958;DHT22;979;51.076;13.748;2023-02-11T08:37:29;7.30;85.90
1958;DHT22;979;51.076;13.748;2023-02-11T08:40:01;7.30;85.50
1958;DHT22;979;51.076;13.748;2023-02-11T08:42:33;7.40;85.90
1958;DHT22;979;51.076;13.748;2023-02-11T08:45:02;7.50;85.70
1958;DHT22;979;51.076;13.748;2023-02-11T08:47:32;7.50;85.40
1958;DHT22;979;51.076;13.748;2023-02-11T08:50:04;7.50;85.10
1958;DHT22;979;51.076;13.748;2023-02-11T08:56:20;7.60;85.20
1958;DHT22;979;51.076;13.748;2023-02-11T08:58:49;7.60;85.00
1958;DHT22;979;51.076;13.748;2023-02-11T09:01:19;7.70;85.10
1958;DHT22;979;51.076;13.748;2023-02-11T09:03:49;7.70;84.70
1958;DHT22;979;51.076;13.748;2023-02-11T09:06:22;7.70;85.00
1958;DHT22;979;51.076;13.748;2023-02-11T09:08:55;7.70;84.60
1958;DHT22;979;51.076;13.748;2023-02-11T09:11:29;7.70;84.60
1958;DHT22;979;51.076;13.748;2023-02-11T09:13:58;7.90;84.60
1958;DHT22;979;51.076;13.748;2023-02-11T09:16:32;7.80;84.50
1958;DHT22;979;51.076;13.748;2023-02-11T09:19:03;7.80;84.40
1958;DHT22;979;51.076;13.748;2023-02-11T09:21:33;7.90;84.50
1958;DHT22;979;51.076;13.748;2023-02-11T09:24:01;7.90;84.60
1958;DHT22;979;51.076;13.748;2023-02-11T09:26:33;7.90;84.70
1958;DHT22;979;51.076;13.748;2023-02-11T09:29:16;8.00;84.40
1958;DHT22;979;51.076;13.748;2023-02-11T09:32:06;8.00;84.10
1958;DHT22;979;51.076;13.748;2023-02-11T09:35:11;8.10;84.10
1958;DHT22;979;51.076;13.748;2023-02-11T09:37:40;7.90;83.90
1958;DHT22;979;51.076;13.748;2023-02-11T09:40:09;8.00;83.50
1958;DHT22;979;51.076;13.748;2023-02-11T09:42:44;7.90;83.40
1958;DHT22;979;51.076;13.748;2023-02-11T09:45:21;8.20;83.60
1958;DHT22;979;51.076;13.748;2023-02-11T09:47:53;8.00;83.60
1958;DHT22;979;51.076;13.748;2023-02-11T09:50:28;8.00;83.80
1958;DHT22;979;51.076;13.748;2023-02-11T09:53:06;8.10;84.20
1958;DHT22;979;51.076;13.748;2023-02-11T09:55:44;8.10;83.80
1958;DHT22;979;51.076;13.748;2023-02-11T09:58:27;8.20;83.80
1958;DHT22;979;51.076;13.748;2023-02-11T10:01:02;8.20;83.80
1958;DHT22;979;51.076;13.748;2023-02-11T10:03:56;8.20;84.10
1958;DHT22;979;51.076;13.748;2023-02-11T10:06:38;8.20;83.80
1958;DHT22;979;51.076;13.748;2023-02-11T10:09:32;8.20;83.90
1958;DHT22;979;51.076;13.748;2023-02-11T10:12:19;8.20;83.60
1958;DHT22;979;51.076;13.748;2023-02-11T10:15:12;8.10;83.50
1958;DHT22;979;51.076;13.748;2023-02-11T10:18:00;8.20;83.40
1958;DHT22;979;51.076;13.748;2023-02-11T10:20:37;8.20;83.40
1958;DHT22;979;51.076;13.748;2023-02-11T10:23:25;8.30;83.80
1958;DHT22;979;51.076;13.748;2023-02-11T10:25:59;8.40;83.60
1958;DHT22;979;51.076;13.748;2023-02-11T10:28:34;8.10;84.30
1958;DHT22;979;51.076;13.748;2023-02-11T10:31:09;8.30;83.40
1958;DHT22;979;51.076;13.748;2023-02-11T10:33:50;8.30;83.60
1958;DHT22;979;51.076;13.748;2023-02-11T10:36:25;8.40;83.60
1958;DHT22;979;51.076;13.748;2023-02-11T10:38:55;8.40;83.40
1958;DHT22;979;51.076;13.748;2023-02-11T10:41:28;8.40;83.60
1958;DHT22;979;51.076;13.748;2023-02-11T10:43:59;8.50;83.80
1958;DHT22;979;51.076;13.748;2023-02-11T10:46:36;8.60;83.90
1958;DHT22;979;51.076;13.748;2023-02-11T10:49:06;8.60;84.00
1958;DHT22;979;51.076;13.748;2023-02-11T10:51:34;8.70;83.80
1958;DHT22;979;51.076;13.748;2023-02-11T10:54:13;8.70;83.70
1958;DHT22;979;51.076;13.748;2023-02-11T10:56:47;8.70;83.40
1958;DHT22;979;51.076;13.748;2023-02-11T10:59:29;8.80;83.80
1958;DHT22;979;51.076;13.748;2023-02-11T11:02:22;8.80;83.80
1958;DHT22;979;51.076;13.748;2023-02-11T11:04:56;8.80;83.60
1958;DHT22;979;51.076;13.748;2023-02-11T11:07:26;8.90;84.00
1958;DHT22;979;51.076;13.748;2023-02-11T11:09:59;9.10;84.10
1958;DHT22;979;51.076;13.748;2023-02-11T11:12:32;9.00;84.20
1958;DHT22;979;51.076;13.748;2023-02-11T11:15:18;9.00;84.00
1958;DHT22;979;51.076;13.748;2023-02-11T11:17:50;9.00;84.00
1958;DHT22;979;51.076;13.748;2023-02-11T11:20:51;9.00;83.90
1958;DHT22;979;51.076;13.748;2023-02-11T11:23:23;9.10;83.80
1958;DHT22;979;51.076;13.748;2023-02-11T11:26:02;9.10;83.90
1958;DHT22;979;51.076;13.748;2023-02-11T11:28:35;9.10;83.60
1958;DHT22;979;51.076;13.748;2023-02-11T11:31:11;9.20;83.80
1958;DHT22;979;51.076;13.748;2023-02-11T11:33:42;9.20;83.70
1958;DHT22;979;51.076;13.748;2023-02-11T11:36:14;9.20;83.90
1958;DHT22;979;51.076;13.748;2023-02-11T11:38:48;9.30;83.80
1958;DHT22;979;51.076;13.748;2023-02-11T11:41:21;9.20;83.40
1958;DHT22;979;51.076;13.748;2023-02-11T11:43:59;9.20;83.40
1958;DHT22;979;51.076;13.748;2023-02-11T11:46:31;9.20;83.40
1958;DHT22;979;51.076;13.748;2023-02-11T11:49:12;9.20;83.30
1958;DHT22;979;51.076;13.748;2023-02-11T11:51:46;9.20;83.40
1958;DHT22;979;51.076;13.748;2023-02-11T11:54:19;9.20;83.30
1958;DHT22;979;51.076;13.748;2023-02-11T11:56:52;9.20;83.30
1958;DHT22;979;51.076;13.748;2023-02-11T11:59:22;9.20;83.30
1958;DHT22;979;51.076;13.748;2023-02-11T12:02:10;9.20;83.70
1958;DHT22;979;51.076;13.748;2023-02-11T12:05:02;9.20;83.30
1958;DHT22;979;51.076;13.748;2023-02-11T12:07:47;9.30;83.30
1958;DHT22;979;51.076;13.748;2023-02-11T12:10:32;9.30;83.40
1958;DHT22;979;51.076;13.748;2023-02-11T12:13:11;9.30;83.30
1958;DHT22;979;51.076;13.748;2023-02-11T12:15:54;9.30;83.20
1958;DHT22;979;51.076;13.748;2023-02-11T12:18:34;9.30;83.30
1958;DHT22;979;51.076;13.748;2023-02-11T12:21:27;9.20;83.20
1958;DHT22;979;51.076;13.748;2023-02-11T12:24:16;9.30;83.20
1958;DHT22;979;51.076;13.748;2023-02-11T12:27:00;9.30;83.10
1958;DHT22;979;51.076;13.748;2023-02-11T12:29:36;9.30;83.20
1958;DHT22;979;51.076;13.748;2023-02-11T12:32:20;9.20;83.20
1958;DHT22;979;51.076;13.748;2023-02-11T12:35:10;9.30;83.30
1958;DHT22;979;51.076;13.748;2023-02-11T12:40:51;9.20;83.10
1958;DHT22;979;51.076;13.748;2023-02-11T12:43:24;9.20;83.40
1958;DHT22;979;51.076;13.748;2023-02-11T12:46:14;9.20;83.50
1958;DHT22;979;51.076;13.748;2023-02-11T12:52:24;9.20;83.60
1958;DHT22;979;51.076;13.748;2023-02-11T12:54:59;9.30;83.40
1958;DHT22;979;51.076;13.748;2023-02-11T12:57:31;9.10;83.60
1958;DHT22;979;51.076;13.748;2023-02-11T13:00:05;9.00;83.50
1958;DHT22;979;51.076;13.748;2023-02-11T13:02:40;9.00;83.40
1958;DHT22;979;51.076;13.748;2023-02-11T13:05:22;8.90;83.50
1958;DHT22;979;51.076;13.748;2023-02-11T13:07:54;9.00;83.80
1958;DHT22;979;51.076;13.748;2023-02-11T13:10:31;9.00;84.00
1958;DHT22;979;51.076;13.748;2023-02-11T13:13:09;9.20;84.20
1958;DHT22;979;51.076;13.748;2023-02-11T13:15:49;8.90;83.80
1958;DHT22;979;51.076;13.748;2023-02-11T13:18:27;9.00;83.90
1958;DHT22;979;51.076;13.748;2023-02-11T13:21:03;9.00;83.90
1958;DHT22;979;51.076;13.748;2023-02-11T13:23:47;9.00;84.10
1958;DHT22;979;51.076;13.748;2023-02-11T13:26:28;9.00;84.60
1958;DHT22;979;51.076;13.748;2023-02-11T13:29:09;9.10;84.70
1958;DHT22;979;51.076;13.748;2023-02-11T13:31:51;9.10;84.60
1958;DHT22;979;51.076;13.748;2023-02-11T13:34:53;9.20;85.00
1958;DHT22;979;51.076;13.748;2023-02-11T13:37:30;9.20;85.00
1958;DHT22;979;51.076;13.748;2023-02-11T13:40:04;9.30;85.00
1958;DHT22;979;51.076;13.748;2023-02-11T13:42:49;9.30;85.00
1958;DHT22;979;51.076;13.748;2023-02-11T13:45:29;9.20;84.60
1958;DHT22;979;51.076;13.748;2023-02-11T13:48:01;9.30;85.00
1958;DHT22;979;51.076;13.748;2023-02-11T13:50:50;9.60;85.30
1958;DHT22;979;51.076;13.748;2023-02-11T13:53:44;9.50;85.40
1958;DHT22;979;51.076;13.748;2023-02-11T13:56:30;9.30;84.90
1958;DHT22;979;51.076;13.748;2023-02-11T14:02:24;9.60;85.10
1958;DHT22;979;51.076;13.748;2023-02-11T14:05:24;9.40;84.90
1958;DHT22;979;51.076;13.748;2023-02-11T14:08:57;9.70;85.30
1958;DHT22;979;51.076;13.748;2023-02-11T14:11:44;9.40;84.80
1958;DHT22;979;51.076;13.748;2023-02-11T14:15:44;9.40;85.00
1958;DHT22;979;51.076;13.748;2023-02-11T14:21:39;9.40;85.00
1958;DHT22;979;51.076;13.748;2023-02-11T14:25:20;9.30;84.80
1958;DHT22;979;51.076;13.748;2023-02-11T14:28:09;9.30;84.70
1958;DHT22;979;51.076;13.748;2023-02-11T14:31:16;9.20;84.50
1958;DHT22;979;51.076;13.748;2023-02-11T14:34:02;9.20;84.40
1958;DHT22;979;51.076;13.748;2023-02-11T14:40:57;9.20;84.80
1958;DHT22;979;51.076;13.748;2023-02-11T14:43:46;9.20;85.00
1958;DHT22;979;51.076;13.748;2023-02-11T14:46:18;9.20;84.80
1958;DHT22;979;51.076;13.748;2023-02-11T14:49:04;9.20;85.00
1958;DHT22;979;51.076;13.748;2023-02-11T14:55:16;9.20;84.80
1958;DHT22;979;51.076;13.748;2023-02-11T14:58:15;9.10;84.70
1958;DHT22;979;51.076;13.748;2023-02-11T15:00:49;9.20;84.60
1958;DHT22;979;51.076;13.748;2023-02-11T15:03:50;9.10;84.50
1958;DHT22;979;51.076;13.748;2023-02-11T15:06:45;9.20;84.70
1958;DHT22;979;51.076;13.748;2023-02-11T15:13:47;9.20;84.70
1958;DHT22;979;51.076;13.748;2023-02-11T15:16:42;9.20;84.50
1958;DHT22;979;51.076;13.748;2023-02-11T15:19:22;9.20;84.60
1958;DHT22;979;51.076;13.748;2023-02-11T15:21:53;9.20;85.00
1958;DHT22;979;51.076;13.748;2023-02-11T15:24:36;9.30;84.90
1958;DHT22;979;51.076;13.748;2023-02-11T15:27:22;9.20;85.00
1958;DHT22;979;51.076;13.748;2023-02-11T15:30:00;9.20;85.60
1958;DHT22;979;51.076;13.748;2023-02-11T15:32:31;9.40;85.10
1958;DHT22;979;51.076;13.748;2023-02-11T15:35:13;9.20;84.60
1958;DHT22;979;51.076;13.748;2023-02-11T15:37:43;9.20;84.20
1958;DHT22;979;51.076;13.748;2023-02-11T15:40:17;9.20;84.70
1958;DHT22;979;51.076;13.748;2023-02-11T15:42:56;9.30;83.80
1958;DHT22;979;51.076;13.748;2023-02-11T15:49:17;9.30;83.40
1958;DHT22;979;51.076;13.748;2023-02-11T15:51:47;9.20;82.90
1958;DHT22;979;51.076;13.748;2023-02-11T15:54:18;9.20;82.50
1958;DHT22;979;51.076;13.748;2023-02-11T15:56:49;9.20;82.10
1958;DHT22;979;51.076;13.748;2023-02-11T15:59:19;9.10;82.00
1958;DHT22;979;51.076;13.748;2023-02-11T16:02:16;9.10;81.90
1958;DHT22;979;51.076;13.748;2023-02-11T16:04:52;9.20;82.00
1958;DHT22;979;51.076;13.748;2023-02-11T16:07:40;9.20;81.60
1958;DHT22;979;51.076;13.748;2023-02-11T16:10:26;9.20;81.30
1958;DHT22;979;51.076;13.748;2023-02-11T16:13:18;9.10;81.10
1958;DHT22;979;51.076;13.748;2023-02-11T16:15:53;9.10;81.10
1958;DHT22;979;51.076;13.748;2023-02-11T16:18:37;9.20;81.20
1958;DHT22;979;51.076;13.748;2023-02-11T16:21:15;9.10;80.80
1958;DHT22;979;51.076;13.748;2023-02-11T16:23:52;9.20;81.00
1958;DHT22;979;51.076;13.748;2023-02-11T16:26:30;9.10;80.60
1958;DHT22;979;51.076;13.748;2023-02-11T16:29:09;9.10;80.50
1958;DHT22;979;51.076;13.748;2023-02-11T16:32:04;9.10;80.30
1958;DHT22;979;51.076;13.748;2023-02-11T16:34:44;9.00;80.20
1958;DHT22;979;51.076;13.748;2023-02-11T16:37:19;9.00;80.40
1958;DHT22;979;51.076;13.748;2023-02-11T16:39:48;9.00;80.30
1958;DHT22;979;51.076;13.748;2023-02-11T16:42:19;8.90;80.50
1958;DHT22;979;51.076;13.748;2023-02-11T16:44:49;8.90;80.70
1958;DHT22;979;51.076;13.748;2023-02-11T16:47:25;8.90;80.60
1958;DHT22;979;51.076;13.748;2023-02-11T16:49:56;8.80;80.40
1958;DHT22;979;51.076;13.748;2023-02-11T16:52:31;8.60;80.40
1958;DHT22;979;51.076;13.748;2023-02-11T16:55:02;8.80;80.60
1958;DHT22;979;51.076;13.748;2023-02-11T16:57:41;8.70;80.70
1958;DHT22;979;51.076;13.748;2023-02-11T17:00:45;8.50;80.90
1958;DHT22;979;51.076;13.748;2023-02-11T17:03:20;8.50;81.00
1958;DHT22;979;51.076;13.748;2023-02-11T17:06:16;8.20;80.90
1958;DHT22;979;51.076;13.748;2023-02-11T17:08:54;8.40;81.80
1958;DHT22;979;51.076;13.748;2023-02-11T17:12:09;8.30;81.90
1958;DHT22;979;51.076;13.748;2023-02-11T17:14:47;8.30;82.10
1958;DHT22;979;51.076;13.748;2023-02-11T17:17:25;8.20;81.80
1958;DHT22;979;51.076;13.748;2023-02-11T17:20:16;8.30;82.20
1958;DHT22;979;51.076;13.748;2023-02-11T17:22:49;8.30;82.20
1958;DHT22;979;51.076;13.748;2023-02-11T17:25:27;8.30;82.80
1958;DHT22;979;51.076;13.748;2023-02-11T17:27:56;8.30;83.60
1958;DHT22;979;51.076;13.748;2023-02-11T17:30:25;8.20;82.90
1958;DHT22;979;51.076;13.748;2023-02-11T17:32:58;8.20;83.00
1958;DHT22;979;51.076;13.748;2023-02-11T17:35:38;8.20;83.10
1958;DHT22;979;51.076;13.748;2023-02-11T17:38:09;8.20;83.30
1958;DHT22;979;51.076;13.748;2023-02-11T17:41:00;8.30;83.20
1958;DHT22;979;51.076;13.748;2023-02-11T17:43:56;8.50;83.10
1958;DHT22;979;51.076;13.748;2023-02-11T17:46:36;8.40;83.40
1958;DHT22;979;51.076;13.748;2023-02-11T17:49:10;8.40;83.10
1958;DHT22;979;51.076;13.748;2023-02-11T17:51:39;8.50;83.40
1958;DHT22;979;51.076;13.748;2023-02-11T17:54:11;8.50;83.20
1958;DHT22;979;51.076;13.748;2023-02-11T17:56:42;8.50;83.20